createdAt,value
2022-09-28T00:00:59.673Z,6.47
2022-09-28T00:03:27.379Z,6.46
2022-09-28T00:05:53.845Z,6.46
2022-09-28T00:08:20.253Z,6.49
2022-09-28T00:10:54.811Z,6.46
2022-09-28T00:13:21.208Z,6.44
2022-09-28T00:15:47.653Z,6.42
2022-09-28T00:18:14.085Z,6.39
2022-09-28T00:20:40.541Z,6.39
2022-09-28T00:23:06.950Z,6.35
2022-09-28T00:25:33.411Z,6.34
2022-09-28T00:27:59.937Z,6.29
2022-09-28T00:30:26.387Z,6.25
2022-09-28T00:32:52.843Z,6.24
2022-09-28T00:35:19.182Z,6.23
2022-09-28T00:37:45.539Z,6.22
2022-09-28T00:40:11.991Z,6.19
2022-09-28T00:42:38.477Z,6.17
2022-09-28T00:45:05.590Z,6.12
2022-09-28T00:47:54.789Z,6.09
2022-09-28T00:50:28.881Z,6.05
2022-09-28T00:53:18.831Z,6.03
2022-09-28T00:56:07.096Z,6.02
2022-09-28T00:58:40.997Z,6.02
2022-09-28T01:01:07.790Z,5.98
2022-09-28T01:03:34.662Z,5.92
2022-09-28T01:06:04.423Z,5.85
2022-09-28T01:08:34.316Z,5.83
2022-09-28T01:11:01.304Z,5.84
2022-09-28T01:13:31.458Z,5.87
2022-09-28T01:16:29.790Z,5.87
2022-09-28T01:19:18.228Z,5.86
2022-09-28T01:22:36.198Z,5.85
2022-09-28T01:25:25.007Z,5.85
2022-09-28T01:27:58.668Z,5.87
2022-09-28T01:30:25.341Z,5.91
2022-09-28T01:33:04.911Z,5.88
2022-09-28T01:35:40.684Z,5.87
2022-09-28T01:38:19.627Z,5.89
2022-09-28T01:40:47.770Z,5.90
2022-09-28T01:43:24.415Z,5.88
2022-09-28T01:46:06.756Z,5.88
2022-09-28T01:48:43.385Z,5.88
2022-09-28T01:51:20.039Z,5.87
2022-09-28T01:53:55.529Z,5.84
2022-09-28T01:56:28.100Z,5.84
2022-09-28T01:59:22.135Z,5.84
2022-09-28T02:01:57.438Z,5.82
2022-09-28T02:04:32.543Z,5.80
2022-09-28T02:07:05.269Z,5.79
2022-09-28T02:09:56.088Z,5.75
2022-09-28T02:12:48.444Z,5.74
2022-09-28T02:15:23.105Z,5.73
2022-09-28T02:17:50.578Z,5.73
2022-09-28T02:20:17.614Z,5.72
2022-09-28T02:22:49.586Z,5.72
2022-09-28T02:25:28.242Z,5.68
2022-09-28T02:28:11.066Z,5.67
2022-09-28T02:30:40.673Z,5.65
2022-09-28T02:33:12.978Z,5.67
2022-09-28T02:35:41.192Z,5.67
2022-09-28T02:38:07.808Z,5.66
2022-09-28T02:40:37.779Z,5.67
2022-09-28T02:43:46.450Z,5.66
2022-09-28T02:46:18.930Z,5.65
2022-09-28T02:49:23.224Z,5.64
2022-09-28T02:52:15.296Z,5.70
2022-09-28T02:55:03.615Z,5.76
2022-09-28T02:57:51.271Z,5.82
2022-09-28T03:00:20.213Z,5.85
2022-09-28T03:02:54.000Z,5.88
2022-09-28T03:05:43.259Z,5.88
2022-09-28T03:08:23.959Z,5.86
2022-09-28T03:10:58.772Z,5.84
2022-09-28T03:13:26.912Z,5.81
2022-09-28T03:16:15.890Z,5.79
2022-09-28T03:18:43.087Z,5.74
2022-09-28T03:21:11.806Z,5.72
2022-09-28T03:23:38.795Z,5.68
2022-09-28T03:26:05.340Z,5.62
2022-09-28T03:28:31.788Z,5.54
2022-09-28T03:30:58.231Z,5.52
2022-09-28T03:33:24.679Z,5.50
2022-09-28T03:35:51.630Z,5.52
2022-09-28T03:38:18.928Z,5.53
2022-09-28T03:40:53.550Z,5.50
2022-09-28T03:43:20.257Z,5.50
2022-09-28T03:46:01.011Z,5.53
2022-09-28T03:48:33.707Z,5.55
2022-09-28T03:51:03.148Z,5.56
2022-09-28T03:53:29.945Z,5.56
2022-09-28T03:56:02.415Z,5.53
2022-09-28T03:58:28.829Z,5.46
2022-09-28T04:00:55.274Z,5.41
2022-09-28T04:03:21.782Z,5.35
2022-09-28T04:05:50.120Z,5.30
2022-09-28T04:08:16.590Z,5.30
2022-09-28T04:10:43.085Z,5.30
2022-09-28T04:13:09.444Z,5.30
2022-09-28T04:15:37.904Z,5.26
2022-09-28T04:18:09.249Z,5.24
2022-09-28T04:20:35.724Z,5.22
2022-09-28T04:23:02.265Z,5.20
2022-09-28T04:25:28.675Z,5.17
2022-09-28T04:28:13.908Z,5.17
2022-09-28T04:30:40.303Z,5.16
2022-09-28T04:33:06.747Z,5.14
2022-09-28T04:35:33.189Z,5.12
2022-09-28T04:37:59.569Z,5.09
2022-09-28T04:40:26.043Z,5.02
2022-09-28T04:42:56.257Z,5.01
2022-09-28T04:45:23.398Z,5.01
2022-09-28T04:47:49.878Z,5.02
2022-09-28T04:50:16.467Z,5.02
2022-09-28T04:52:42.912Z,4.99
2022-09-28T04:55:12.857Z,4.92
2022-09-28T04:57:39.933Z,4.78
2022-09-28T05:00:07.100Z,4.63
2022-09-28T05:02:33.601Z,4.57
2022-09-28T05:05:00.817Z,4.56
2022-09-28T05:07:27.412Z,4.53
2022-09-28T05:09:55.872Z,4.52
2022-09-28T05:12:22.394Z,4.50
2022-09-28T05:14:48.784Z,4.46
2022-09-28T05:17:15.207Z,4.53
2022-09-28T05:19:41.639Z,4.52
2022-09-28T05:22:11.410Z,4.49
2022-09-28T05:24:37.891Z,4.52
2022-09-28T05:27:05.047Z,4.55
2022-09-28T05:29:32.602Z,4.58
2022-09-28T05:32:01.502Z,4.63
2022-09-28T05:34:28.313Z,4.68
2022-09-28T05:36:54.883Z,4.73
2022-09-28T05:39:21.301Z,4.80
2022-09-28T05:41:47.780Z,4.83
2022-09-28T05:44:14.267Z,4.89
2022-09-28T05:46:40.769Z,4.92
2022-09-28T05:49:07.134Z,4.94
2022-09-28T05:51:33.561Z,4.98
2022-09-28T05:54:05.397Z,5.00
2022-09-28T05:56:32.327Z,5.04
2022-09-28T05:58:58.936Z,5.08
2022-09-28T06:01:25.578Z,5.11
2022-09-28T06:03:52.080Z,5.14
2022-09-28T06:06:18.566Z,5.17
2022-09-28T06:08:46.263Z,5.22
2022-09-28T06:11:12.760Z,5.25
2022-09-28T06:13:39.990Z,5.31
2022-09-28T06:16:08.059Z,5.36
2022-09-28T06:18:34.649Z,5.41
2022-09-28T06:21:02.521Z,5.42
2022-09-28T06:23:28.951Z,5.40
2022-09-28T06:25:55.430Z,5.34
2022-09-28T06:28:21.880Z,5.28
2022-09-28T06:30:48.359Z,5.25
2022-09-28T06:33:15.370Z,5.27
2022-09-28T06:35:42.375Z,5.28
2022-09-28T06:38:09.027Z,5.28
2022-09-28T06:40:36.268Z,5.32
2022-09-28T06:43:10.254Z,5.38
2022-09-28T06:45:38.284Z,5.47
2022-09-28T06:48:05.775Z,5.57
2022-09-28T06:50:37.611Z,5.65
2022-09-28T06:53:06.790Z,5.74
2022-09-28T06:55:33.510Z,5.83
2022-09-28T06:58:02.068Z,5.94
2022-09-28T07:00:31.067Z,6.03
2022-09-28T07:02:57.496Z,6.13
2022-09-28T07:05:27.051Z,6.27
2022-09-28T07:07:55.265Z,6.43
2022-09-28T07:10:27.937Z,6.58
2022-09-28T07:12:55.669Z,6.73
2022-09-28T07:15:22.645Z,6.87
2022-09-28T07:17:59.707Z,7.01
2022-09-28T07:20:27.873Z,7.13
2022-09-28T07:23:09.564Z,7.23
2022-09-28T07:25:45.355Z,7.30
2022-09-28T07:28:12.273Z,7.41
2022-09-28T07:30:39.032Z,7.54
2022-09-28T07:33:08.008Z,7.70
2022-09-28T07:35:34.489Z,7.79
2022-09-28T07:38:08.512Z,7.87
2022-09-28T07:40:54.712Z,7.96
2022-09-28T07:43:25.010Z,8.03
2022-09-28T07:45:54.127Z,8.08
2022-09-28T07:48:21.448Z,8.18
2022-09-28T07:50:56.591Z,8.30
2022-09-28T07:53:25.461Z,8.36
2022-09-28T07:55:57.017Z,8.47
2022-09-28T07:58:23.408Z,8.58
2022-09-28T08:00:50.976Z,8.63
2022-09-28T08:03:19.366Z,8.69
2022-09-28T08:05:46.727Z,8.83
2022-09-28T08:08:13.828Z,8.94
2022-09-28T08:10:46.590Z,9.03
2022-09-28T08:13:15.061Z,9.15
2022-09-28T08:15:42.478Z,9.21
2022-09-28T08:18:09.235Z,9.25
2022-09-28T08:20:54.246Z,9.30
2022-09-28T08:23:20.711Z,9.43
2022-09-28T08:25:50.903Z,9.54
2022-09-28T08:28:17.885Z,9.63
2022-09-28T08:30:45.651Z,9.70
2022-09-28T08:33:13.360Z,9.78
2022-09-28T08:35:41.197Z,9.86
2022-09-28T08:38:08.764Z,9.95
2022-09-28T08:40:49.908Z,10.02
2022-09-28T08:43:54.692Z,10.11
2022-09-28T08:46:26.961Z,10.24
2022-09-28T08:49:25.284Z,10.26
2022-09-28T08:52:00.967Z,10.37
2022-09-28T08:54:48.767Z,10.48
2022-09-28T08:57:20.704Z,10.52
2022-09-28T08:59:55.985Z,10.59
2022-09-28T09:02:33.405Z,10.60
2022-09-28T09:05:04.209Z,10.70
2022-09-28T09:07:56.857Z,10.78
2022-09-28T09:10:44.506Z,10.91
2022-09-28T09:13:32.407Z,11.04
2022-09-28T09:16:26.744Z,11.26
2022-09-28T09:19:11.496Z,11.30
2022-09-28T09:21:58.229Z,11.32
2022-09-28T09:24:38.952Z,11.16
2022-09-28T09:27:14.237Z,10.92
2022-09-28T09:29:53.132Z,10.74
2022-09-28T09:32:40.056Z,10.84
2022-09-28T09:35:31.897Z,11.46
2022-09-28T09:38:07.779Z,11.88
2022-09-28T09:40:54.806Z,12.11
2022-09-28T09:43:49.364Z,12.03
2022-09-28T09:46:32.397Z,11.45
2022-09-28T09:49:06.723Z,11.21
2022-09-28T09:51:49.008Z,11.08
2022-09-28T09:54:51.380Z,11.38
2022-09-28T09:57:25.045Z,11.76
2022-09-28T09:59:52.026Z,11.85
2022-09-28T10:02:27.869Z,11.80
2022-09-28T10:05:01.899Z,12.08
2022-09-28T10:07:43.561Z,12.30
2022-09-28T10:10:21.374Z,12.46
2022-09-28T10:12:51.069Z,12.63
2022-09-28T10:15:25.892Z,12.74
2022-09-28T10:17:54.795Z,12.90
2022-09-28T10:20:22.962Z,12.49
2022-09-28T10:22:51.461Z,12.30
2022-09-28T10:25:18.782Z,12.52
2022-09-28T10:27:49.223Z,12.55
2022-09-28T10:30:23.666Z,12.33
2022-09-28T10:32:53.597Z,12.16
2022-09-28T10:35:19.912Z,12.52
2022-09-28T10:37:52.213Z,12.86
2022-09-28T10:40:44.718Z,12.98
2022-09-28T10:43:31.368Z,12.97
2022-09-28T10:46:06.094Z,12.60
2022-09-28T10:49:11.921Z,12.30
2022-09-28T10:51:43.618Z,12.13
2022-09-28T10:54:21.933Z,12.12
2022-09-28T10:56:50.305Z,12.29
2022-09-28T10:59:29.196Z,12.79
2022-09-28T11:02:20.886Z,13.30
2022-09-28T11:04:56.631Z,13.21
2022-09-28T11:07:30.402Z,12.99
2022-09-28T11:09:58.868Z,12.67
2022-09-28T11:12:38.231Z,12.57
2022-09-28T11:15:07.561Z,13.11
2022-09-28T11:17:40.350Z,13.55
2022-09-28T11:20:27.753Z,13.95
2022-09-28T11:22:55.646Z,13.63
2022-09-28T11:25:24.950Z,13.41
2022-09-28T11:27:51.250Z,13.18
2022-09-28T11:30:40.792Z,13.11
2022-09-28T11:33:14.965Z,12.94
2022-09-28T11:35:44.359Z,12.88
2022-09-28T11:38:38.036Z,13.49
2022-09-28T11:41:22.529Z,14.11
2022-09-28T11:43:58.141Z,14.50
2022-09-28T11:46:33.907Z,14.46
2022-09-28T11:49:30.480Z,13.96
2022-09-28T11:52:03.446Z,13.56
2022-09-28T11:54:42.770Z,13.39
2022-09-28T11:57:17.320Z,13.29
2022-09-28T12:00:06.005Z,13.23
2022-09-28T12:02:42.766Z,13.28
2022-09-28T12:05:30.100Z,13.26
2022-09-28T12:08:17.785Z,13.21
2022-09-28T12:11:09.731Z,13.13
2022-09-28T12:13:45.880Z,13.16
2022-09-28T12:16:45.777Z,13.22
2022-09-28T12:28:43.910Z,13.72
2022-09-28T12:31:52.533Z,13.63
2022-09-28T12:34:19.048Z,13.40
2022-09-28T12:37:08.877Z,13.10
2022-09-28T12:40:00.742Z,12.72
2022-09-28T12:42:44.177Z,12.26
2022-09-28T12:45:38.925Z,11.61
2022-09-28T12:48:38.388Z,11.07
2022-09-28T12:51:29.795Z,10.76
2022-09-28T12:54:14.416Z,10.64
2022-09-28T12:57:04.893Z,10.50
2022-09-28T12:59:36.547Z,10.68
2022-09-28T13:02:36.941Z,10.66
2022-09-28T13:05:36.743Z,10.52
2022-09-28T13:08:27.926Z,10.47
2022-09-28T13:11:08.900Z,10.46
2022-09-28T13:13:56.224Z,10.45
2022-09-28T13:16:39.624Z,10.42
2022-09-28T13:19:38.284Z,10.48
2022-09-28T13:22:34.031Z,10.54
2022-09-28T13:25:05.678Z,10.61
2022-09-28T13:27:37.130Z,10.60
2022-09-28T13:30:09.260Z,10.63
2022-09-28T13:32:37.304Z,10.73
2022-09-28T13:35:03.908Z,10.84
2022-09-28T13:37:30.435Z,10.96
2022-09-28T13:39:58.940Z,11.06
2022-09-28T13:42:47.513Z,11.25
2022-09-28T13:45:19.968Z,11.51
2022-09-28T13:47:55.531Z,11.83
2022-09-28T13:50:59.679Z,12.24
2022-09-28T13:53:42.742Z,12.50
2022-09-28T13:56:36.100Z,12.47
2022-09-28T13:59:14.832Z,12.55
2022-09-28T14:01:51.699Z,12.83
2022-09-28T14:04:19.626Z,12.91
2022-09-28T14:07:20.401Z,12.87
2022-09-28T14:09:48.681Z,12.87
2022-09-28T14:12:51.389Z,12.78
2022-09-28T14:15:30.263Z,12.58
2022-09-28T14:18:15.484Z,12.46
2022-09-28T14:20:58.657Z,12.40
2022-09-28T14:24:11.299Z,12.27
2022-09-28T14:27:30.908Z,12.14
2022-09-28T14:39:20.594Z,11.95
2022-09-28T14:41:47.084Z,11.84
2022-09-28T14:44:16.448Z,11.76
2022-09-28T14:46:45.552Z,11.64
2022-09-28T14:49:19.364Z,11.55
2022-09-28T14:51:57.942Z,11.53
2022-09-28T14:54:27.179Z,11.48
2022-09-28T14:56:53.519Z,11.46
2022-09-28T14:59:24.787Z,11.42
2022-09-28T15:01:57.688Z,11.32
2022-09-28T15:04:28.597Z,11.23
2022-09-28T15:06:55.669Z,11.16
2022-09-28T15:09:36.577Z,11.17
2022-09-28T15:12:26.425Z,11.17
2022-09-28T15:15:02.150Z,11.18
2022-09-28T15:17:37.064Z,11.18
2022-09-28T15:20:30.699Z,11.16
2022-09-28T15:23:00.251Z,11.18
2022-09-28T15:25:32.028Z,11.16
2022-09-28T15:28:17.786Z,11.19
2022-09-28T15:30:44.289Z,11.20
2022-09-28T15:33:43.168Z,11.23
2022-09-28T15:36:16.615Z,11.31
2022-09-28T15:38:43.173Z,11.38
2022-09-28T15:41:11.112Z,11.42
2022-09-28T15:43:37.888Z,11.41
2022-09-28T15:46:22.034Z,11.28
2022-09-28T15:48:59.147Z,11.20
2022-09-28T15:51:27.425Z,11.14
2022-09-28T15:54:02.942Z,11.11
2022-09-28T15:56:30.702Z,11.08
2022-09-28T15:59:15.477Z,11.04
2022-09-28T16:01:45.725Z,11.05
2022-09-28T16:04:52.978Z,11.00
2022-09-28T16:07:30.835Z,11.05
2022-09-28T16:10:27.993Z,11.06
2022-09-28T16:13:06.539Z,11.10
2022-09-28T16:15:35.721Z,11.20
2022-09-28T16:18:22.148Z,11.22
2022-09-28T16:20:51.815Z,11.24
2022-09-28T16:23:20.693Z,11.28
2022-09-28T16:25:58.687Z,11.30
2022-09-28T16:28:34.701Z,11.34
2022-09-28T16:31:27.133Z,11.35
2022-09-28T16:34:11.567Z,11.36
2022-09-28T16:36:45.486Z,11.33
2022-09-28T16:39:21.098Z,11.27
2022-09-28T16:41:55.711Z,11.25
2022-09-28T16:44:27.011Z,11.19
2022-09-28T16:46:55.578Z,11.16
2022-09-28T16:49:23.767Z,11.09
2022-09-28T16:51:50.238Z,11.01
2022-09-28T16:54:43.515Z,10.93
2022-09-28T16:57:14.816Z,10.84
2022-09-28T16:59:41.278Z,10.79
2022-09-28T17:02:35.458Z,10.73
2022-09-28T17:05:06.335Z,10.65
2022-09-28T17:07:33.363Z,10.56
2022-09-28T17:09:59.821Z,10.48
2022-09-28T17:12:29.068Z,10.45
2022-09-28T17:14:55.424Z,10.41
2022-09-28T17:17:22.650Z,10.31
2022-09-28T17:19:49.020Z,10.24
2022-09-28T17:22:16.668Z,10.16
2022-09-28T17:24:45.444Z,10.10
2022-09-28T17:27:16.704Z,10.07
2022-09-28T17:29:43.080Z,10.01
2022-09-28T17:32:18.049Z,9.92
2022-09-28T17:34:51.525Z,9.86
2022-09-28T17:37:22.154Z,9.78
2022-09-28T17:39:48.579Z,9.71
2022-09-28T17:42:14.956Z,9.61
2022-09-28T17:44:41.666Z,9.53
2022-09-28T17:47:09.402Z,9.47
2022-09-28T17:49:35.863Z,9.40
2022-09-28T17:52:03.522Z,9.33
2022-09-28T17:54:29.936Z,9.27
2022-09-28T17:56:56.387Z,9.23
2022-09-28T17:59:22.812Z,9.21
2022-09-28T18:01:49.342Z,9.21
2022-09-28T18:04:33.729Z,9.18
2022-09-28T18:07:02.746Z,9.15
2022-09-28T18:09:29.158Z,9.11
2022-09-28T18:12:00.903Z,9.00
2022-09-28T18:14:28.424Z,8.94
2022-09-28T18:16:54.799Z,8.92
2022-09-28T18:19:21.248Z,8.92
2022-09-28T18:21:48.301Z,8.91
2022-09-28T18:24:14.823Z,8.88
2022-09-28T18:26:41.341Z,8.85
2022-09-28T18:29:07.831Z,8.82
2022-09-28T18:31:34.260Z,8.76
2022-09-28T18:34:03.995Z,8.68
2022-09-28T18:36:31.949Z,8.79
2022-09-28T18:39:00.890Z,8.68
2022-09-28T18:41:27.988Z,8.60
2022-09-28T18:44:00.424Z,8.57
2022-09-28T18:46:28.887Z,8.55
2022-09-28T18:48:56.251Z,8.50
2022-09-28T18:51:22.932Z,8.45
2022-09-28T18:53:50.078Z,8.42
2022-09-28T18:56:18.235Z,8.43
2022-09-28T18:58:46.102Z,8.44
2022-09-28T19:01:33.504Z,8.45
2022-09-28T19:04:01.729Z,8.41
2022-09-28T19:06:28.773Z,8.40
2022-09-28T19:08:55.971Z,8.34
2022-09-28T19:11:23.090Z,8.37
2022-09-28T19:13:49.496Z,8.33
2022-09-28T19:16:19.911Z,8.29
2022-09-28T19:18:47.043Z,8.22
2022-09-28T19:21:14.883Z,8.21
2022-09-28T19:23:46.885Z,8.20
2022-09-28T19:26:28.853Z,8.21
2022-09-28T19:28:56.872Z,8.23
2022-09-28T19:31:24.602Z,8.18
2022-09-28T19:33:51.056Z,8.18
2022-09-28T19:36:23.486Z,8.19
2022-09-28T19:38:51.428Z,8.17
2022-09-28T19:41:39.428Z,8.15
2022-09-28T19:44:29.587Z,8.09
2022-09-28T19:46:58.845Z,8.03
2022-09-28T19:49:27.820Z,8.04
2022-09-28T19:52:12.007Z,8.05
2022-09-28T19:54:39.593Z,8.00
2022-09-28T19:57:07.719Z,7.96
2022-09-28T19:59:35.635Z,7.91
2022-09-28T20:02:03.083Z,7.91
2022-09-28T20:04:29.942Z,7.91
2022-09-28T20:06:56.868Z,7.92
2022-09-28T20:09:23.249Z,7.91
2022-09-28T20:11:51.745Z,7.88
2022-09-28T20:14:23.390Z,7.86
2022-09-28T20:16:52.229Z,7.85
2022-09-28T20:19:21.367Z,7.81
2022-09-28T20:21:48.452Z,7.78
2022-09-28T20:24:17.189Z,7.74
2022-09-28T20:26:45.690Z,7.68
2022-09-28T20:29:12.221Z,7.59
2022-09-28T20:31:39.668Z,7.53
2022-09-28T20:34:06.673Z,7.53
2022-09-28T20:36:33.890Z,7.51
2022-09-28T20:39:01.762Z,7.45
2022-09-28T20:41:36.151Z,7.39
2022-09-28T20:44:06.013Z,7.34
2022-09-28T20:46:34.610Z,7.27
2022-09-28T20:49:01.617Z,7.22
2022-09-28T20:51:28.364Z,7.19
2022-09-28T20:53:57.286Z,7.18
2022-09-28T20:56:37.407Z,7.15
2022-09-28T20:59:06.589Z,7.13
2022-09-28T21:01:33.113Z,7.14
2022-09-28T21:04:01.628Z,7.12
2022-09-28T21:06:30.598Z,7.11
2022-09-28T21:08:57.566Z,7.09
2022-09-28T21:11:26.154Z,7.04
2022-09-28T21:13:54.498Z,7.03
2022-09-28T21:16:21.324Z,7.03
2022-09-28T21:18:48.108Z,6.99
2022-09-28T21:21:17.006Z,6.95
2022-09-28T21:23:46.370Z,6.93
2022-09-28T21:26:18.818Z,6.89
2022-09-28T21:28:45.946Z,6.85
2022-09-28T21:31:12.836Z,6.78
2022-09-28T21:33:39.396Z,6.72
2022-09-28T21:36:07.807Z,6.71
2022-09-28T21:38:35.797Z,6.70
2022-09-28T21:41:02.628Z,6.67
2022-09-28T21:43:31.154Z,6.68
2022-09-28T21:45:58.288Z,6.65
2022-09-28T21:48:27.995Z,6.64
2022-09-28T21:51:03.973Z,6.65
2022-09-28T21:53:32.974Z,6.63
2022-09-28T21:56:00.314Z,6.59
2022-09-28T21:58:31.703Z,6.54
2022-09-28T22:01:16.690Z,6.52
2022-09-28T22:03:46.563Z,6.53
2022-09-28T22:06:13.920Z,6.53
2022-09-28T22:08:40.739Z,6.51
2022-09-28T22:11:12.996Z,6.47
2022-09-28T22:13:48.115Z,6.46
2022-09-28T22:16:17.386Z,6.48
2022-09-28T22:18:44.621Z,6.47
2022-09-28T22:21:15.391Z,6.41
2022-09-28T22:23:42.812Z,6.39
2022-09-28T22:26:17.954Z,6.40
2022-09-28T22:28:58.503Z,6.37
2022-09-28T22:31:31.143Z,6.36
2022-09-28T22:33:58.755Z,6.36
2022-09-28T22:36:25.831Z,6.34
2022-09-28T22:38:53.835Z,6.31
2022-09-28T22:41:20.864Z,6.22
2022-09-28T22:43:48.539Z,6.16
2022-09-28T22:46:17.780Z,6.12
2022-09-28T22:48:49.456Z,6.09
2022-09-28T22:51:16.701Z,6.08
2022-09-28T22:53:43.227Z,5.99
2022-09-28T22:56:12.588Z,5.96
2022-09-28T22:58:42.959Z,5.89
2022-09-28T23:01:15.759Z,5.88
2022-09-28T23:03:42.892Z,5.84
2022-09-28T23:06:10.839Z,5.83
2022-09-28T23:08:37.613Z,5.85
2022-09-28T23:11:05.120Z,5.87
2022-09-28T23:13:32.035Z,5.87
2022-09-28T23:16:01.628Z,5.87
2022-09-28T23:18:30.226Z,5.88
2022-09-28T23:20:58.844Z,5.85
2022-09-28T23:23:25.570Z,5.83
2022-09-28T23:25:52.808Z,5.76
2022-09-28T23:28:20.920Z,5.72
2022-09-28T23:30:47.835Z,5.70
2022-09-28T23:33:15.653Z,5.64
2022-09-28T23:35:43.081Z,5.60
2022-09-28T23:38:18.131Z,5.56
2022-09-28T23:40:47.772Z,5.55
2022-09-28T23:43:14.793Z,5.52
2022-09-28T23:45:44.754Z,5.46
2022-09-28T23:48:13.024Z,5.43
2022-09-28T23:50:39.506Z,5.36
2022-09-28T23:53:06.538Z,5.34
2022-09-28T23:55:32.976Z,5.37
2022-09-28T23:57:59.375Z,5.33
